Time;durP1;ratioP1;P1;durP2;ratioP2;P2;SDS_P1;SDS_P2;PMS_P1;PMS_P2;Temp;Humidity;BMP_temperature;BMP_pressure;BME280_temperature;BME280_humidity;BME280_pressure;Samples;Min_cycle;Max_cycle;Signal;HPM_P1;HPM_P2
2021/03/03 00:00:37;;;;;;;26.65;5.60;;;;;;;;;;5072029;28;20024;-36
2021/03/03 00:03:04;;;;;;;21.45;5.13;;;;;;;;;;5071764;28;20102;-36
2021/03/03 00:05:31;;;;;;;36.38;5.80;;;;;;;;;;5070166;28;20111;-37
2021/03/03 00:07:58;;;;;;;31.05;6.03;;;;;;;;;;5071344;28;20040;-37
2021/03/03 00:10:25;;;;;;;21.95;4.90;;;;;;;;;;5070389;28;20096;-38
2021/03/03 00:12:52;;;;;;;42.95;7.18;;;;;;;;;;5081905;28;20029;-37
2021/03/03 00:15:19;;;;;;;29.63;6.45;;;;;;;;;;5070766;28;20033;-36
2021/03/03 00:17:46;;;;;;;28.45;6.13;;;;;;;;;;5070294;28;20031;-37
2021/03/03 00:20:13;;;;;;;27.15;5.50;;;;;;;;;;5071281;28;20473;-38
2021/03/03 00:22:40;;;;;;;37.28;6.38;;;;;;;;;;5071885;28;20029;-38
2021/03/03 00:25:08;;;;;;;28.50;5.57;;;;;;;;;;5066430;28;20047;-37
2021/03/03 00:27:35;;;;;;;26.20;5.55;;;;;;;;;;5069419;28;20062;-38
2021/03/03 00:30:02;;;;;;;23.73;5.22;;;;;;;;;;5069818;28;20024;-37
2021/03/03 00:32:30;;;;;;;30.48;5.90;;;;;;;;;;5068989;28;20017;-36
2021/03/03 00:34:57;;;;;;;29.65;5.82;;;;;;;;;;5070837;28;20106;-41
2021/03/03 00:37:24;;;;;;;36.63;5.40;;;;;;;;;;5065258;28;20020;-37
2021/03/03 00:39:51;;;;;;;29.63;5.75;;;;;;;;;;5069011;28;20039;-37
2021/03/03 00:42:18;;;;;;;25.30;5.22;;;;;;;;;;5070024;28;20016;-39
2021/03/03 00:44:45;;;;;;;26.73;5.35;;;;;;;;;;5065956;28;20036;-39
2021/03/03 00:47:12;;;;;;;24.27;5.28;;;;;;;;;;5065115;28;20035;-37
2021/03/03 00:49:39;;;;;;;27.63;4.97;;;;;;;;;;5059899;28;20009;-37
2021/03/03 00:52:06;;;;;;;27.98;4.97;;;;;;;;;;5071177;28;20445;-37
2021/03/03 00:54:33;;;;;;;21.10;4.85;;;;;;;;;;5071418;28;20029;-41
2021/03/03 00:57:00;;;;;;;31.60;5.28;;;;;;;;;;5070729;28;20167;-39
2021/03/03 00:59:27;;;;;;;14.60;4.15;;;;;;;;;;5070376;28;20047;-39
2021/03/03 01:01:54;;;;;;;14.80;4.00;;;;;;;;;;5070534;28;20020;-36
2021/03/03 01:04:21;;;;;;;23.80;4.78;;;;;;;;;;5068114;28;20175;-38
2021/03/03 01:06:48;;;;;;;19.88;4.60;;;;;;;;;;5070611;28;20099;-38
2021/03/03 01:09:15;;;;;;;26.77;4.32;;;;;;;;;;5071093;28;20476;-37
2021/03/03 01:11:42;;;;;;;17.77;4.25;;;;;;;;;;5071186;28;20113;-37
2021/03/03 01:14:09;;;;;;;24.77;5.10;;;;;;;;;;5069800;28;20472;-39
2021/03/03 01:16:36;;;;;;;12.90;3.90;;;;;;;;;;5070657;28;20373;-37
2021/03/03 01:19:03;;;;;;;30.83;3.83;;;;;;;;;;5058677;28;20035;-39
2021/03/03 01:21:30;;;;;;;20.38;4.28;;;;;;;;;;5056772;28;20016;-39
2021/03/03 01:23:57;;;;;;;16.27;3.25;;;;;;;;;;5070657;28;20115;-40
2021/03/03 01:26:24;;;;;;;19.17;3.75;;;;;;;;;;5070260;28;20464;-38
2021/03/03 01:28:51;;;;;;;28.20;3.25;;;;;;;;;;5065696;28;20063;-39
2021/03/03 01:31:18;;;;;;;26.90;4.22;;;;;;;;;;5068137;28;20052;-39
2021/03/03 01:33:45;;;;;;;14.77;3.38;;;;;;;;;;5069286;28;20533;-40
2021/03/03 01:36:12;;;;;;;22.33;3.95;;;;;;;;;;5068718;28;20499;-39
2021/03/03 01:38:39;;;;;;;16.02;3.45;;;;;;;;;;5068113;28;20434;-39
2021/03/03 01:41:06;;;;;;;24.00;3.95;;;;;;;;;;5067677;28;20024;-38
2021/03/03 01:43:33;;;;;;;35.38;4.45;;;;;;;;;;5066592;28;20094;-39
2021/03/03 01:46:01;;;;;;;21.77;3.45;;;;;;;;;;5068898;28;20045;-39
2021/03/03 01:48:28;;;;;;;16.17;3.25;;;;;;;;;;5060315;28;20027;-40
2021/03/03 01:50:55;;;;;;;21.10;3.25;;;;;;;;;;5066108;28;20028;-38
2021/03/03 01:53:22;;;;;;;14.38;3.80;;;;;;;;;;5061624;28;20040;-39
2021/03/03 01:55:49;;;;;;;35.58;3.90;;;;;;;;;;5061671;28;20033;-38
2021/03/03 01:58:16;;;;;;;25.30;3.78;;;;;;;;;;5063060;28;20048;-39
2021/03/03 02:00:43;;;;;;;18.95;3.42;;;;;;;;;;5061279;28;20411;-40
2021/03/03 02:03:10;;;;;;;13.35;2.88;;;;;;;;;;5062955;28;20017;-40
2021/03/03 02:05:37;;;;;;;26.05;3.67;;;;;;;;;;5070237;28;20447;-39
2021/03/03 02:08:08;;;;;;;22.80;3.55;;;;;;;;;;5072069;28;20100;-39
2021/03/03 02:10:38;;;;;;;30.90;4.37;;;;;;;;;;5071572;28;20021;-39
2021/03/03 02:13:10;;;;;;;12.95;3.17;;;;;;;;;;5071683;28;20025;-42
2021/03/03 02:15:39;;;;;;;25.75;3.40;;;;;;;;;;5061744;28;20037;-42
2021/03/03 02:18:07;;;;;;;14.45;3.10;;;;;;;;;;5049801;28;20025;-39
2021/03/03 02:20:39;;;;;;;20.38;3.42;;;;;;;;;;5050490;28;20156;-42
2021/03/03 02:23:15;;;;;;;9.87;2.83;;;;;;;;;;5058759;28;20025;-41
2021/03/03 02:25:44;;;;;;;14.05;3.35;;;;;;;;;;5053332;28;20024;-41
2021/03/03 02:28:12;;;;;;;19.30;2.85;;;;;;;;;;5051445;28;20029;-40
2021/03/03 02:30:40;;;;;;;16.30;3.00;;;;;;;;;;5050386;28;20017;-41
2021/03/03 02:33:08;;;;;;;24.38;3.38;;;;;;;;;;5050975;28;20025;-41
2021/03/03 02:35:35;;;;;;;16.65;2.83;;;;;;;;;;5051178;28;20439;-42
2021/03/03 02:38:04;;;;;;;19.67;3.22;;;;;;;;;;5051434;28;20021;-42
2021/03/03 02:40:31;;;;;;;19.77;3.65;;;;;;;;;;5051040;28;20380;-41
2021/03/03 02:42:59;;;;;;;23.45;3.53;;;;;;;;;;5051355;28;20028;-42
2021/03/03 02:45:27;;;;;;;21.90;2.90;;;;;;;;;;5051497;28;20045;-42
2021/03/03 02:47:54;;;;;;;18.48;3.38;;;;;;;;;;5057065;28;20016;-41
2021/03/03 02:50:21;;;;;;;19.25;2.80;;;;;;;;;;5070417;28;20518;-42
2021/03/03 02:52:49;;;;;;;13.27;3.03;;;;;;;;;;5071147;28;20029;-41
2021/03/03 02:55:16;;;;;;;19.85;3.00;;;;;;;;;;5071864;28;20496;-41
2021/03/03 02:57:43;;;;;;;20.30;2.63;;;;;;;;;;5074456;28;20029;-41
2021/03/03 03:00:12;;;;;;;19.40;3.00;;;;;;;;;;5074440;28;20020;-41
2021/03/03 03:02:41;;;;;;;10.05;2.63;;;;;;;;;;5074663;28;20024;-41
2021/03/03 03:05:09;;;;;;;16.92;2.72;;;;;;;;;;5074884;28;20029;-41
2021/03/03 03:07:38;;;;;;;15.20;2.92;;;;;;;;;;5074872;28;20055;-41
2021/03/03 03:10:07;;;;;;;9.90;2.35;;;;;;;;;;5074998;28;20027;-41
2021/03/03 03:12:35;;;;;;;16.35;2.88;;;;;;;;;;5074980;28;20013;-41
2021/03/03 03:15:02;;;;;;;17.67;2.35;;;;;;;;;;5075025;28;20108;-41
2021/03/03 03:17:29;;;;;;;17.80;2.70;;;;;;;;;;5074821;28;20059;-41
2021/03/03 03:19:58;;;;;;;14.57;2.65;;;;;;;;;;5074708;28;20024;-40
2021/03/03 03:22:28;;;;;;;17.15;3.55;;;;;;;;;;5074638;28;20021;-41
2021/03/03 03:24:58;;;;;;;20.88;2.65;;;;;;;;;;5074859;28;20475;-41
2021/03/03 03:27:27;;;;;;;18.27;2.63;;;;;;;;;;5073312;28;20024;-41
2021/03/03 03:29:54;;;;;;;16.15;2.22;;;;;;;;;;5074542;28;20504;-41
2021/03/03 03:32:21;;;;;;;13.02;2.65;;;;;;;;;;5074736;28;20017;-41
2021/03/03 03:34:48;;;;;;;17.95;3.22;;;;;;;;;;5074249;28;20036;-41
2021/03/03 03:37:16;;;;;;;43.53;4.40;;;;;;;;;;5074476;28;20016;-41
2021/03/03 03:39:43;;;;;;;38.17;3.85;;;;;;;;;;5074497;28;20032;-40
2021/03/03 03:42:10;;;;;;;44.70;4.45;;;;;;;;;;5074294;28;20380;-40
2021/03/03 03:44:38;;;;;;;49.22;4.85;;;;;;;;;;5074174;28;20150;-38
2021/03/03 03:47:05;;;;;;;51.83;5.93;;;;;;;;;;5074514;28;20024;-38
2021/03/03 03:49:32;;;;;;;40.05;4.68;;;;;;;;;;5074063;28;20021;-41
2021/03/03 03:51:59;;;;;;;42.60;5.38;;;;;;;;;;5074243;28;20563;-40
2021/03/03 03:54:26;;;;;;;50.03;4.88;;;;;;;;;;5074239;28;20016;-41
2021/03/03 03:56:53;;;;;;;45.90;5.30;;;;;;;;;;5074193;28;20031;-40
2021/03/03 03:59:20;;;;;;;41.35;5.03;;;;;;;;;;5073949;28;20051;-40
2021/03/03 04:01:47;;;;;;;29.75;3.70;;;;;;;;;;5070501;28;20027;-41
2021/03/03 04:04:14;;;;;;;32.03;4.03;;;;;;;;;;5071398;28;20043;-40
2021/03/03 04:06:41;;;;;;;25.92;3.42;;;;;;;;;;5088225;28;20539;-40
2021/03/03 04:09:08;;;;;;;23.50;3.42;;;;;;;;;;5073216;28;20039;-40
2021/03/03 04:11:35;;;;;;;25.52;4.18;;;;;;;;;;5073466;28;20024;-40
2021/03/03 04:14:02;;;;;;;29.80;3.97;;;;;;;;;;5073304;28;20029;-40
2021/03/03 04:16:29;;;;;;;42.78;4.50;;;;;;;;;;5072938;28;20026;-41
2021/03/03 04:18:56;;;;;;;37.35;4.25;;;;;;;;;;5073738;28;20380;-40
2021/03/03 04:21:23;;;;;;;36.85;4.50;;;;;;;;;;5073512;28;20052;-40
2021/03/03 04:23:50;;;;;;;40.05;4.95;;;;;;;;;;5073636;28;20020;-40
2021/03/03 04:26:17;;;;;;;39.05;5.13;;;;;;;;;;5073676;28;20024;-40
2021/03/03 04:28:44;;;;;;;31.15;4.55;;;;;;;;;;5073550;28;20055;-40
2021/03/03 04:31:11;;;;;;;30.52;3.20;;;;;;;;;;5073440;28;20017;-40
2021/03/03 04:33:38;;;;;;;33.58;3.67;;;;;;;;;;5073271;28;20036;-40
2021/03/03 04:36:05;;;;;;;34.50;4.05;;;;;;;;;;5073326;28;20090;-40
2021/03/03 04:38:32;;;;;;;28.35;3.92;;;;;;;;;;5073492;28;20147;-40
2021/03/03 04:40:59;;;;;;;38.22;3.75;;;;;;;;;;5073279;28;20024;-40
2021/03/03 04:43:26;;;;;;;38.95;4.55;;;;;;;;;;5072793;28;20074;-39
2021/03/03 04:45:53;;;;;;;43.10;4.95;;;;;;;;;;5072999;28;20116;-41
2021/03/03 04:48:20;;;;;;;43.63;6.25;;;;;;;;;;5072946;28;20052;-40
2021/03/03 04:50:47;;;;;;;29.17;4.53;;;;;;;;;;5073041;28;20049;-40
2021/03/03 04:53:14;;;;;;;35.40;5.57;;;;;;;;;;5072959;28;20028;-40
2021/03/03 04:55:41;;;;;;;52.15;5.68;;;;;;;;;;5073008;28;20043;-40
2021/03/03 04:58:08;;;;;;;60.75;5.82;;;;;;;;;;5072746;28;20033;-40
2021/03/03 05:00:35;;;;;;;42.60;5.15;;;;;;;;;;5071459;28;20024;-41
2021/03/03 05:03:02;;;;;;;38.03;4.20;;;;;;;;;;5072805;28;20034;-40
2021/03/03 05:05:29;;;;;;;23.00;4.15;;;;;;;;;;5072654;28;20095;-40
2021/03/03 05:07:56;;;;;;;32.95;4.50;;;;;;;;;;5072826;28;20050;-41
2021/03/03 05:10:23;;;;;;;25.15;4.05;;;;;;;;;;5072754;28;20100;-40
2021/03/03 05:12:50;;;;;;;27.85;3.90;;;;;;;;;;5072632;28;20020;-40
2021/03/03 05:15:18;;;;;;;33.90;4.70;;;;;;;;;;5071082;28;20036;-41
2021/03/03 05:17:45;;;;;;;27.38;3.53;;;;;;;;;;5071662;28;20420;-41
2021/03/03 05:20:13;;;;;;;31.40;4.00;;;;;;;;;;5072532;28;20032;-41
2021/03/03 05:22:40;;;;;;;21.25;3.60;;;;;;;;;;5072487;28;20016;-41
2021/03/03 05:25:07;;;;;;;20.15;3.50;;;;;;;;;;5072645;28;20150;-41
2021/03/03 05:27:34;;;;;;;25.75;3.65;;;;;;;;;;5072431;28;20024;-41
2021/03/03 05:30:01;;;;;;;22.95;3.53;;;;;;;;;;5072394;28;20017;-41
2021/03/03 05:32:28;;;;;;;22.95;3.97;;;;;;;;;;5072483;28;20028;-42
2021/03/03 05:34:55;;;;;;;23.60;2.88;;;;;;;;;;5072022;28;20091;-42
2021/03/03 05:37:22;;;;;;;20.38;3.20;;;;;;;;;;5070933;28;20039;-41
2021/03/03 05:39:49;;;;;;;19.40;3.17;;;;;;;;;;5072350;28;20024;-41
2021/03/03 05:42:16;;;;;;;24.20;3.22;;;;;;;;;;5070932;28;20542;-41
2021/03/03 05:44:47;;;;;;;16.30;3.17;;;;;;;;;;5072059;28;20467;-40
2021/03/03 05:47:15;;;;;;;18.23;3.10;;;;;;;;;;5070835;28;20067;-39
2021/03/03 05:49:44;;;;;;;17.73;3.20;;;;;;;;;;5072419;28;20090;-40
2021/03/03 05:52:15;;;;;;;15.90;3.20;;;;;;;;;;5072137;28;20122;-40
2021/03/03 05:54:43;;;;;;;20.35;3.67;;;;;;;;;;5072150;28;20112;-41
2021/03/03 05:57:10;;;;;;;18.67;3.53;;;;;;;;;;5070960;28;20118;-41
2021/03/03 05:59:37;;;;;;;20.23;3.72;;;;;;;;;;5071911;28;20024;-41
2021/03/03 06:02:05;;;;;;;16.38;3.53;;;;;;;;;;5072063;28;20016;-42
2021/03/03 06:04:32;;;;;;;17.42;3.13;;;;;;;;;;5072207;28;20021;-41
2021/03/03 06:07:00;;;;;;;27.25;3.72;;;;;;;;;;5072063;28;20028;-42
2021/03/03 06:09:27;;;;;;;21.08;3.65;;;;;;;;;;5072011;28;20028;-40
2021/03/03 06:11:56;;;;;;;18.13;3.35;;;;;;;;;;5072147;28;20573;-40
2021/03/03 06:14:24;;;;;;;15.43;2.97;;;;;;;;;;5071844;28;20120;-40
2021/03/03 06:16:53;;;;;;;14.10;3.08;;;;;;;;;;5071952;28;20023;-39
2021/03/03 06:19:20;;;;;;;15.82;3.17;;;;;;;;;;5071939;28;20406;-40
2021/03/03 06:21:47;;;;;;;17.55;2.85;;;;;;;;;;5072050;28;20031;-40
2021/03/03 06:24:14;;;;;;;13.85;3.17;;;;;;;;;;5071888;28;20051;-40
2021/03/03 06:26:58;;;;;;;16.48;3.20;;;;;;;;;;5071913;28;20046;-41
2021/03/03 06:29:25;;;;;;;15.50;3.08;;;;;;;;;;5073369;28;20016;-42
2021/03/03 06:31:52;;;;;;;11.85;2.63;;;;;;;;;;5075870;28;20103;-42
2021/03/03 06:34:23;;;;;;;17.10;3.47;;;;;;;;;;5075586;28;20086;-41
2021/03/03 06:36:56;;;;;;;12.93;2.72;;;;;;;;;;5075684;28;20511;-41
2021/03/03 06:39:23;;;;;;;23.95;3.15;;;;;;;;;;5075254;28;20032;-40
2021/03/03 06:41:51;;;;;;;15.77;2.85;;;;;;;;;;5075289;28;20029;-41
2021/03/03 06:44:19;;;;;;;15.32;2.85;;;;;;;;;;5075242;28;20040;-41
2021/03/03 06:47:01;;;;;;;11.20;2.55;;;;;;;;;;5075570;28;20028;-41
2021/03/03 06:49:28;;;;;;;15.85;2.72;;;;;;;;;;5075419;28;20099;-41
2021/03/03 06:51:56;;;;;;;14.85;2.92;;;;;;;;;;5075344;28;20029;-41
2021/03/03 06:54:24;;;;;;;17.70;3.08;;;;;;;;;;5075147;28;20025;-41
2021/03/03 06:56:52;;;;;;;11.52;2.65;;;;;;;;;;5075426;28;20082;-41
2021/03/03 06:59:22;;;;;;;15.43;3.30;;;;;;;;;;5075138;28;20058;-41
2021/03/03 07:01:53;;;;;;;10.38;2.55;;;;;;;;;;5075145;28;20021;-41
2021/03/03 07:04:20;;;;;;;11.90;2.53;;;;;;;;;;5075189;28;20473;-41
2021/03/03 07:06:48;;;;;;;14.57;2.67;;;;;;;;;;5075144;28;20071;-41
2021/03/03 07:09:15;;;;;;;10.80;2.38;;;;;;;;;;5074874;28;20138;-42
2021/03/03 07:11:42;;;;;;;13.63;2.50;;;;;;;;;;5074839;28;20031;-41
2021/03/03 07:14:13;;;;;;;22.52;3.10;;;;;;;;;;5074936;28;20031;-41
2021/03/03 07:16:59;;;;;;;19.08;3.33;;;;;;;;;;5074897;28;20157;-41
2021/03/03 07:19:25;;;;;;;16.80;2.70;;;;;;;;;;5074435;28;20032;-41
2021/03/03 07:21:53;;;;;;;11.40;2.42;;;;;;;;;;5074672;28;20472;-41
2021/03/03 07:24:20;;;;;;;9.02;2.40;;;;;;;;;;5073610;28;20468;-41
2021/03/03 07:26:47;;;;;;;11.50;2.65;;;;;;;;;;5074615;28;20043;-41
2021/03/03 07:29:15;;;;;;;17.15;3.10;;;;;;;;;;5074639;28;20021;-41
2021/03/03 07:31:42;;;;;;;10.18;2.60;;;;;;;;;;5074798;28;20058;-41
2021/03/03 07:34:09;;;;;;;8.80;2.35;;;;;;;;;;5073054;28;20483;-40
2021/03/03 07:36:37;;;;;;;14.63;3.05;;;;;;;;;;5074570;28;20032;-41
2021/03/03 07:39:04;;;;;;;12.85;2.47;;;;;;;;;;5074408;28;20047;-41
2021/03/03 07:41:34;;;;;;;13.10;2.63;;;;;;;;;;5073211;28;20459;-41
2021/03/03 07:44:03;;;;;;;11.45;2.67;;;;;;;;;;5074102;28;20028;-41
2021/03/03 07:46:30;;;;;;;15.38;2.88;;;;;;;;;;5074431;28;20138;-41
2021/03/03 07:48:57;;;;;;;10.25;2.60;;;;;;;;;;5074240;28;20372;-41
2021/03/03 07:51:25;;;;;;;9.70;2.97;;;;;;;;;;5074193;28;20028;-41
2021/03/03 07:53:52;;;;;;;10.15;2.45;;;;;;;;;;5074194;28;20059;-41
2021/03/03 07:56:23;;;;;;;13.95;2.72;;;;;;;;;;5072927;28;20044;-41
2021/03/03 07:58:50;;;;;;;12.80;2.45;;;;;;;;;;5074099;28;20045;-40
2021/03/03 08:01:17;;;;;;;16.95;2.90;;;;;;;;;;5073933;28;20025;-41
2021/03/03 08:03:48;;;;;;;12.18;2.67;;;;;;;;;;5074030;28;20012;-41
2021/03/03 08:06:21;;;;;;;17.77;3.00;;;;;;;;;;5074019;28;20025;-41
2021/03/03 08:09:11;;;;;;;15.38;2.90;;;;;;;;;;5073833;28;20500;-41
2021/03/03 08:11:48;;;;;;;18.52;2.83;;;;;;;;;;5066033;28;20040;-41
2021/03/03 08:14:33;;;;;;;14.45;2.67;;;;;;;;;;5073721;28;20020;-41
2021/03/03 08:17:05;;;;;;;12.50;2.30;;;;;;;;;;5073720;28;20083;-40
2021/03/03 08:19:50;;;;;;;13.95;3.20;;;;;;;;;;5073668;28;20020;-43
2021/03/03 08:22:17;;;;;;;11.98;2.50;;;;;;;;;;5073648;28;20491;-41
2021/03/03 08:24:44;;;;;;;13.35;2.35;;;;;;;;;;5073614;28;20066;-41
2021/03/03 08:27:29;;;;;;;17.65;2.50;;;;;;;;;;5073574;28;20017;-41
2021/03/03 08:30:15;;;;;;;12.18;2.55;;;;;;;;;;5073509;28;20100;-41
2021/03/03 08:32:42;;;;;;;14.00;2.78;;;;;;;;;;5073426;28;20035;-41
2021/03/03 08:35:10;;;;;;;12.10;2.92;;;;;;;;;;5073028;28;20507;-42
2021/03/03 08:37:38;;;;;;;14.50;2.88;;;;;;;;;;5073369;28;20024;-44
2021/03/03 08:40:23;;;;;;;14.07;3.08;;;;;;;;;;5073223;28;20028;-42
2021/03/03 08:42:50;;;;;;;13.90;2.88;;;;;;;;;;5073229;28;20032;-42
2021/03/03 08:45:18;;;;;;;14.50;2.88;;;;;;;;;;5072866;28;20037;-40
2021/03/03 08:47:48;;;;;;;13.18;2.80;;;;;;;;;;5072928;28;20025;-41
2021/03/03 08:50:34;;;;;;;10.25;2.60;;;;;;;;;;5073106;28;20376;-41
2021/03/03 08:53:27;;;;;;;22.67;3.03;;;;;;;;;;5071547;28;20021;-41
2021/03/03 08:55:55;;;;;;;10.73;2.70;;;;;;;;;;5070495;28;20056;-40
2021/03/03 08:58:37;;;;;;;16.52;2.78;;;;;;;;;;5072843;28;20024;-41
2021/03/03 09:01:04;;;;;;;10.18;2.88;;;;;;;;;;5073005;28;20021;-41
2021/03/03 09:03:31;;;;;;;17.67;3.08;;;;;;;;;;5072709;28;20491;-41
2021/03/03 09:05:58;;;;;;;13.70;2.72;;;;;;;;;;5071552;28;20029;-41
2021/03/03 09:08:25;;;;;;;11.98;2.70;;;;;;;;;;5072812;28;20103;-40
2021/03/03 09:10:53;;;;;;;13.98;2.97;;;;;;;;;;5072542;28;20017;-41
2021/03/03 09:13:23;;;;;;;17.50;3.10;;;;;;;;;;5072753;28;20025;-41
2021/03/03 09:16:06;;;;;;;15.98;2.95;;;;;;;;;;5072594;28;20043;-41
2021/03/03 09:18:35;;;;;;;12.98;2.85;;;;;;;;;;5072537;28;20025;-40
2021/03/03 09:21:20;;;;;;;15.93;2.95;;;;;;;;;;5071289;28;20495;-42
2021/03/03 09:23:47;;;;;;;9.98;2.97;;;;;;;;;;5072582;28;20024;-41
2021/03/03 09:26:20;;;;;;;14.25;2.80;;;;;;;;;;5072637;28;20491;-41
2021/03/03 09:28:47;;;;;;;11.52;2.20;;;;;;;;;;5072366;28;20032;-40
2021/03/03 09:31:34;;;;;;;10.23;2.85;;;;;;;;;;5072429;28;20024;-41
2021/03/03 09:34:01;;;;;;;12.63;2.35;;;;;;;;;;5071991;28;20499;-41
2021/03/03 09:36:29;;;;;;;19.67;2.55;;;;;;;;;;5072408;28;20036;-41
2021/03/03 09:38:57;;;;;;;15.80;2.55;;;;;;;;;;5072382;28;20047;-41
2021/03/03 09:41:25;;;;;;;25.58;4.55;;;;;;;;;;5072278;28;20071;-41
2021/03/03 09:44:02;;;;;;;24.70;2.47;;;;;;;;;;5072161;28;20099;-43
2021/03/03 09:46:29;;;;;;;15.30;3.15;;;;;;;;;;5072374;28;20455;-40
2021/03/03 09:48:56;;;;;;;12.40;2.35;;;;;;;;;;5072117;28;20013;-41
2021/03/03 09:51:23;;;;;;;20.15;3.00;;;;;;;;;;5072103;28;20024;-40
2021/03/03 09:53:56;;;;;;;9.93;2.95;;;;;;;;;;5072211;28;20021;-41
2021/03/03 09:56:26;;;;;;;13.30;3.13;;;;;;;;;;5072350;28;20064;-41
2021/03/03 09:58:53;;;;;;;13.60;2.85;;;;;;;;;;5072151;28;20016;-41
2021/03/03 10:01:20;;;;;;;18.13;2.75;;;;;;;;;;5072025;28;20036;-42
2021/03/03 10:03:48;;;;;;;15.35;2.72;;;;;;;;;;5072757;28;20493;-42
2021/03/03 10:06:15;;;;;;;16.73;3.03;;;;;;;;;;5076196;28;20017;-41
2021/03/03 10:08:43;;;;;;;15.43;2.92;;;;;;;;;;5075971;28;20033;-41
2021/03/03 10:11:10;;;;;;;19.13;2.72;;;;;;;;;;5075295;28;20433;-40
2021/03/03 10:13:41;;;;;;;20.33;3.17;;;;;;;;;;5075278;28;20032;-40
2021/03/03 10:16:18;;;;;;;14.48;2.47;;;;;;;;;;5076246;28;20452;-41
2021/03/03 10:18:58;;;;;;;16.20;2.92;;;;;;;;;;5064214;28;20021;-40
2021/03/03 10:21:25;;;;;;;14.52;2.83;;;;;;;;;;5064363;28;20417;-41
2021/03/03 10:23:52;;;;;;;14.75;3.00;;;;;;;;;;5065824;28;20099;-40
2021/03/03 10:26:23;;;;;;;15.60;3.22;;;;;;;;;;5062401;28;20036;-40
2021/03/03 10:28:53;;;;;;;22.77;3.55;;;;;;;;;;5064609;28;20385;-40
2021/03/03 10:31:23;;;;;;;12.88;2.55;;;;;;;;;;5064563;28;20468;-40
2021/03/03 10:33:50;;;;;;;20.35;2.88;;;;;;;;;;5066295;28;20460;-41
2021/03/03 10:36:17;;;;;;;20.52;3.05;;;;;;;;;;5072761;28;20032;-40
2021/03/03 10:38:49;;;;;;;14.55;2.80;;;;;;;;;;5074638;28;20024;-40
2021/03/03 10:41:31;;;;;;;14.90;2.65;;;;;;;;;;5074561;28;20071;-40
2021/03/03 10:43:58;;;;;;;24.55;3.53;;;;;;;;;;5074230;28;20037;-41
2021/03/03 10:46:26;;;;;;;27.95;3.75;;;;;;;;;;5074570;28;20039;-40
2021/03/03 10:48:53;;;;;;;35.10;4.35;;;;;;;;;;5074460;28;20397;-40
2021/03/03 10:51:22;;;;;;;26.77;4.03;;;;;;;;;;5075185;28;20468;-39
2021/03/03 10:53:58;;;;;;;58.13;4.88;;;;;;;;;;5075119;28;20024;-40
2021/03/03 10:56:31;;;;;;;41.47;5.40;;;;;;;;;;5075591;28;20074;-40
2021/03/03 10:59:00;;;;;;;41.90;4.78;;;;;;;;;;5075280;28;20028;-39
2021/03/03 11:01:43;;;;;;;40.88;4.43;;;;;;;;;;5075365;28;20146;-41
2021/03/03 11:04:10;;;;;;;40.88;5.45;;;;;;;;;;5075066;28;20162;-39
2021/03/03 11:06:37;;;;;;;45.60;4.68;;;;;;;;;;5075086;28;20017;-39
2021/03/03 11:09:07;;;;;;;35.67;4.43;;;;;;;;;;5074825;28;20039;-40
2021/03/03 11:11:34;;;;;;;21.67;3.13;;;;;;;;;;5075158;28;20093;-41
2021/03/03 11:14:01;;;;;;;24.83;3.92;;;;;;;;;;5065502;28;20043;-40
2021/03/03 11:16:28;;;;;;;17.83;3.33;;;;;;;;;;5073748;28;20044;-39
2021/03/03 11:18:55;;;;;;;16.92;3.20;;;;;;;;;;5073407;28;20095;-40
2021/03/03 11:21:22;;;;;;;22.52;3.17;;;;;;;;;;5077475;28;20511;-40
2021/03/03 11:23:49;;;;;;;16.60;2.95;;;;;;;;;;5073449;28;20427;-40
2021/03/03 11:26:16;;;;;;;11.52;2.33;;;;;;;;;;5070528;28;20473;-40
2021/03/03 11:28:43;;;;;;;18.25;2.60;;;;;;;;;;5070524;28;20066;-40
2021/03/03 11:31:10;;;;;;;19.85;3.00;;;;;;;;;;5067561;28;20067;-40
2021/03/03 11:33:37;;;;;;;14.18;2.88;;;;;;;;;;5071382;28;20056;-40
2021/03/03 11:36:04;;;;;;;19.33;2.67;;;;;;;;;;5071242;28;20079;-44
2021/03/03 11:38:31;;;;;;;20.27;3.20;;;;;;;;;;5073130;28;20012;-43
2021/03/03 11:40:58;;;;;;;13.52;2.17;;;;;;;;;;5073019;28;20068;-46
2021/03/03 11:43:25;;;;;;;12.45;3.17;;;;;;;;;;5072893;28;20028;-45
2021/03/03 11:45:52;;;;;;;20.55;3.22;;;;;;;;;;5070653;28;20118;-44
2021/03/03 11:48:20;;;;;;;19.52;3.33;;;;;;;;;;5070253;28;20518;-44
2021/03/03 11:50:47;;;;;;;13.55;2.88;;;;;;;;;;5072150;28;20028;-44
2021/03/03 11:53:14;;;;;;;15.98;2.85;;;;;;;;;;5072941;28;20103;-44
2021/03/03 11:55:40;;;;;;;13.85;2.88;;;;;;;;;;5087091;28;20119;-45
2021/03/03 11:58:07;;;;;;;14.27;3.53;;;;;;;;;;5072621;28;20488;-45
2021/03/03 12:00:35;;;;;;;12.23;2.50;;;;;;;;;;5072619;28;20472;-45
2021/03/03 12:03:02;;;;;;;11.15;2.47;;;;;;;;;;5073410;28;20024;-46
2021/03/03 12:05:29;;;;;;;17.08;3.47;;;;;;;;;;5072712;28;20086;-47
2021/03/03 12:07:56;;;;;;;21.38;3.70;;;;;;;;;;5071356;28;20396;-46
2021/03/03 12:10:23;;;;;;;14.88;3.28;;;;;;;;;;5072846;28;20029;-47
2021/03/03 12:12:50;;;;;;;28.23;3.85;;;;;;;;;;5072476;28;20031;-47
2021/03/03 12:15:17;;;;;;;12.20;3.15;;;;;;;;;;5072390;28;20051;-46
2021/03/03 12:17:45;;;;;;;16.33;3.13;;;;;;;;;;5072968;28;20020;-47
2021/03/03 12:20:12;;;;;;;13.57;2.90;;;;;;;;;;5072277;28;20029;-46
2021/03/03 12:22:39;;;;;;;18.58;2.63;;;;;;;;;;5072137;28;20025;-45
2021/03/03 12:25:06;;;;;;;13.52;2.55;;;;;;;;;;5072391;28;20393;-47
2021/03/03 12:27:33;;;;;;;13.73;3.08;;;;;;;;;;5071443;28;20024;-47
2021/03/03 12:30:00;;;;;;;9.25;2.20;;;;;;;;;;5072282;28;20159;-46
2021/03/03 12:32:27;;;;;;;13.63;2.42;;;;;;;;;;5072696;28;20115;-46
2021/03/03 12:34:54;;;;;;;9.00;1.95;;;;;;;;;;5071630;28;20484;-47
2021/03/03 12:37:21;;;;;;;10.18;2.30;;;;;;;;;;5071872;28;20071;-47
2021/03/03 12:39:48;;;;;;;10.45;3.00;;;;;;;;;;5071705;28;20051;-47
2021/03/03 12:42:15;;;;;;;10.73;2.13;;;;;;;;;;5071914;28;20094;-46
2021/03/03 12:44:42;;;;;;;18.58;2.42;;;;;;;;;;5071438;28;20035;-47
2021/03/03 12:47:10;;;;;;;12.35;2.28;;;;;;;;;;5072321;28;20027;-46
2021/03/03 12:49:37;;;;;;;12.45;2.28;;;;;;;;;;5071506;28;20033;-47
2021/03/03 12:52:04;;;;;;;9.43;2.22;;;;;;;;;;5072351;28;20021;-46
2021/03/03 12:54:31;;;;;;;9.52;1.70;;;;;;;;;;5071799;28;20068;-47
2021/03/03 12:56:58;;;;;;;5.30;1.40;;;;;;;;;;5071791;28;20020;-45
2021/03/03 12:59:25;;;;;;;14.52;2.05;;;;;;;;;;5071187;28;20020;-46
2021/03/03 13:01:52;;;;;;;4.20;1.90;;;;;;;;;;5071326;28;20028;-46
2021/03/03 13:04:19;;;;;;;10.95;2.35;;;;;;;;;;5071635;28;20025;-45
2021/03/03 13:06:46;;;;;;;6.18;1.88;;;;;;;;;;5077543;28;20029;-46
2021/03/03 13:09:13;;;;;;;7.32;1.70;;;;;;;;;;5071351;28;20016;-46
2021/03/03 13:11:40;;;;;;;5.45;1.33;;;;;;;;;;5071433;28;20483;-47
2021/03/03 13:14:08;;;;;;;10.95;1.75;;;;;;;;;;5071627;28;20044;-46
2021/03/03 13:16:35;;;;;;;7.85;1.50;;;;;;;;;;5071359;28;20519;-46
2021/03/03 13:19:02;;;;;;;3.45;1.13;;;;;;;;;;5071408;28;20035;-48
2021/03/03 13:21:29;;;;;;;9.50;1.60;;;;;;;;;;5071223;28;20029;-45
2021/03/03 13:23:56;;;;;;;4.88;1.33;;;;;;;;;;5071020;28;20021;-46
2021/03/03 13:26:23;;;;;;;9.52;1.70;;;;;;;;;;5070703;28;20032;-46
2021/03/03 13:28:50;;;;;;;9.02;1.80;;;;;;;;;;5070514;28;20548;-44
2021/03/03 13:31:17;;;;;;;11.52;1.70;;;;;;;;;;5066828;28;20039;-45
2021/03/03 13:33:44;;;;;;;7.78;1.75;;;;;;;;;;5069446;28;20095;-46
2021/03/03 13:36:11;;;;;;;12.23;1.55;;;;;;;;;;5069139;28;20111;-45
2021/03/03 13:38:38;;;;;;;9.73;1.58;;;;;;;;;;5067603;28;20484;-45
2021/03/03 13:41:05;;;;;;;8.70;1.75;;;;;;;;;;5066395;28;20032;-45
2021/03/03 13:43:32;;;;;;;18.13;1.80;;;;;;;;;;5071080;28;20016;-45
2021/03/03 13:45:59;;;;;;;13.40;1.65;;;;;;;;;;5068228;28;20052;-46
2021/03/03 13:48:26;;;;;;;11.63;1.85;;;;;;;;;;5066980;28;20483;-45
2021/03/03 13:50:53;;;;;;;8.07;2.03;;;;;;;;;;5070784;28;20029;-45
2021/03/03 13:53:20;;;;;;;9.55;1.60;;;;;;;;;;5070767;28;20028;-45
2021/03/03 13:55:47;;;;;;;6.22;1.73;;;;;;;;;;5070811;28;20100;-46
2021/03/03 13:58:14;;;;;;;8.50;1.60;;;;;;;;;;5071326;28;20078;-45
2021/03/03 14:00:41;;;;;;;5.68;1.45;;;;;;;;;;5070343;28;20035;-44
2021/03/03 14:03:08;;;;;;;10.30;1.60;;;;;;;;;;5070962;28;20032;-45
2021/03/03 14:05:35;;;;;;;7.32;1.95;;;;;;;;;;5070370;28;20502;-43
2021/03/03 14:08:02;;;;;;;7.60;1.73;;;;;;;;;;5070604;28;20766;-45
2021/03/03 14:10:30;;;;;;;9.48;1.73;;;;;;;;;;5066637;28;20024;-44
2021/03/03 14:12:56;;;;;;;7.15;1.70;;;;;;;;;;5070587;28;20476;-45
2021/03/03 14:15:24;;;;;;;11.43;1.45;;;;;;;;;;5070093;28;20435;-45
2021/03/03 14:17:51;;;;;;;7.07;2.05;;;;;;;;;;5071292;28;20440;-42
2021/03/03 14:20:18;;;;;;;11.30;1.80;;;;;;;;;;5070601;28;20492;-45
2021/03/03 14:22:45;;;;;;;13.20;1.65;;;;;;;;;;5077165;28;20027;-47
2021/03/03 14:25:12;;;;;;;4.70;1.33;;;;;;;;;;5070738;28;20028;-46
2021/03/03 14:27:39;;;;;;;8.25;1.88;;;;;;;;;;5070246;28;20036;-44
2021/03/03 14:30:06;;;;;;;5.95;1.50;;;;;;;;;;5070357;28;20032;-44
2021/03/03 14:32:33;;;;;;;5.80;1.48;;;;;;;;;;5071316;28;20031;-45
2021/03/03 14:35:00;;;;;;;7.15;1.50;;;;;;;;;;5063309;28;20040;-44
2021/03/03 14:37:27;;;;;;;6.22;1.63;;;;;;;;;;5070345;28;20025;-45